createdAt,value
2023-01-31T00:00:02.406Z,3.35
2023-01-31T00:01:08.429Z,3.36
2023-01-31T00:02:10.324Z,3.35
2023-01-31T00:03:12.327Z,3.37
2023-01-31T00:04:14.224Z,3.39
2023-01-31T00:05:16.664Z,3.40
2023-01-31T00:06:20.364Z,3.38
2023-01-31T00:07:22.277Z,3.38
2023-01-31T00:08:24.242Z,3.36
2023-01-31T00:09:26.142Z,3.35
2023-01-31T00:10:27.991Z,3.34
2023-01-31T00:11:30.441Z,3.35
2023-01-31T00:12:32.261Z,3.36
2023-01-31T00:13:34.258Z,3.36
2023-01-31T00:14:36.264Z,3.35
2023-01-31T00:15:38.933Z,3.36
2023-01-31T00:16:43.694Z,3.37
2023-01-31T00:17:45.990Z,3.36
2023-01-31T00:18:48.308Z,3.36
2023-01-31T00:19:50.239Z,3.36
2023-01-31T00:20:52.134Z,3.37
2023-01-31T00:21:53.992Z,3.37
2023-01-31T00:22:55.853Z,3.37
2023-01-31T00:23:58.728Z,3.36
2023-01-31T00:25:00.653Z,3.36
2023-01-31T00:26:08.690Z,3.37
2023-01-31T00:27:10.568Z,3.35
2023-01-31T00:28:12.862Z,3.31
2023-01-31T00:29:14.749Z,3.30
2023-01-31T00:30:16.733Z,3.32
2023-01-31T00:31:19.703Z,3.34
2023-01-31T00:32:21.712Z,3.36
2023-01-31T00:33:26.329Z,3.37
2023-01-31T00:34:28.287Z,3.39
2023-01-31T00:35:30.074Z,3.39
2023-01-31T00:36:33.257Z,3.38
2023-01-31T00:37:35.114Z,3.37
2023-01-31T00:38:37.434Z,3.36
2023-01-31T00:39:39.520Z,3.35
2023-01-31T00:40:41.363Z,3.35
2023-01-31T00:41:43.199Z,3.36
2023-01-31T00:42:45.567Z,3.38
2023-01-31T00:43:47.660Z,3.43
2023-01-31T00:44:49.907Z,3.45
2023-01-31T00:45:52.193Z,3.47
2023-01-31T00:46:54.077Z,3.49
2023-01-31T00:47:55.966Z,3.49
2023-01-31T00:48:58.963Z,3.45
2023-01-31T00:50:01.146Z,3.51
2023-01-31T00:51:03.370Z,3.54
2023-01-31T00:52:05.424Z,3.54
2023-01-31T00:53:07.439Z,3.55
2023-01-31T00:54:09.298Z,3.58
2023-01-31T00:55:11.588Z,3.58
2023-01-31T00:56:15.136Z,3.58
2023-01-31T00:57:17.069Z,3.57
2023-01-31T00:58:19.383Z,3.56
2023-01-31T00:59:21.218Z,3.55
2023-01-31T01:00:23.151Z,3.54
2023-01-31T01:01:26.940Z,3.51
2023-01-31T01:02:28.927Z,3.51
2023-01-31T01:03:30.856Z,3.51
2023-01-31T01:04:32.947Z,3.49
2023-01-31T01:05:35.346Z,3.48
2023-01-31T01:06:40.415Z,3.46
2023-01-31T01:07:42.681Z,3.45
2023-01-31T01:08:45.668Z,3.44
2023-01-31T01:09:47.568Z,3.47
2023-01-31T01:10:49.786Z,3.47
2023-01-31T01:11:51.733Z,3.46
2023-01-31T01:12:53.613Z,3.45
2023-01-31T01:13:56.080Z,3.43
2023-01-31T01:14:57.975Z,3.45
2023-01-31T01:16:05.043Z,3.48
2023-01-31T01:17:06.932Z,3.50
2023-01-31T01:18:09.435Z,3.49
2023-01-31T01:19:17.714Z,3.49
2023-01-31T01:20:20.149Z,3.47
2023-01-31T01:21:23.830Z,3.47
2023-01-31T01:22:25.716Z,3.49
2023-01-31T01:23:27.638Z,3.47
2023-01-31T01:24:29.557Z,3.47
2023-01-31T01:25:31.751Z,3.47
2023-01-31T01:26:35.108Z,3.48
2023-01-31T01:27:37.612Z,3.50
2023-01-31T01:28:39.925Z,3.51
2023-01-31T01:29:41.843Z,3.51
2023-01-31T01:30:44.505Z,3.49
2023-01-31T01:31:46.569Z,3.47
2023-01-31T01:32:49.004Z,3.47
2023-01-31T01:33:50.964Z,3.43
2023-01-31T01:34:52.919Z,3.42
2023-01-31T01:35:54.855Z,3.44
2023-01-31T01:36:56.716Z,3.44
2023-01-31T01:37:58.498Z,3.47
2023-01-31T01:39:00.453Z,3.47
2023-01-31T01:40:02.345Z,3.49
2023-01-31T01:41:04.852Z,3.49
2023-01-31T01:42:08.439Z,3.48
2023-01-31T01:43:11.998Z,3.44
2023-01-31T01:44:32.845Z,3.46
2023-01-31T01:45:35.221Z,3.48
2023-01-31T01:46:40.684Z,3.51
2023-01-31T01:47:42.941Z,3.53
2023-01-31T01:48:46.715Z,3.56
2023-01-31T01:49:51.634Z,3.56
2023-01-31T01:50:54.429Z,3.54
2023-01-31T01:51:58.622Z,3.50
2023-01-31T01:53:03.740Z,3.50
2023-01-31T01:54:08.884Z,3.49
2023-01-31T01:55:18.909Z,3.47
2023-01-31T01:56:26.812Z,3.44
2023-01-31T01:57:32.719Z,3.41
2023-01-31T01:58:39.584Z,3.42
2023-01-31T01:59:44.402Z,3.43
2023-01-31T02:00:47.702Z,3.44
2023-01-31T02:01:50.394Z,3.46
2023-01-31T02:02:57.541Z,3.46
2023-01-31T02:03:59.426Z,3.46
2023-01-31T02:05:01.363Z,3.45
2023-01-31T02:06:05.061Z,3.42
2023-01-31T02:07:08.081Z,3.43
2023-01-31T02:08:10.666Z,3.45
2023-01-31T02:09:19.974Z,3.47
2023-01-31T02:10:27.626Z,3.47
2023-01-31T02:11:31.000Z,3.46
2023-01-31T02:12:34.436Z,3.47
2023-01-31T02:13:38.450Z,3.45
2023-01-31T02:14:40.818Z,3.45
2023-01-31T02:15:42.915Z,3.41
2023-01-31T02:16:44.797Z,3.40
2023-01-31T02:17:47.076Z,3.42
2023-01-31T02:18:49.489Z,3.40
2023-01-31T02:19:54.338Z,3.42
2023-01-31T02:21:14.741Z,3.42
2023-01-31T02:22:23.057Z,3.40
2023-01-31T02:23:40.033Z,3.41
2023-01-31T02:25:00.761Z,3.40
2023-01-31T02:26:11.924Z,3.38
2023-01-31T02:27:35.300Z,3.39
2023-01-31T02:28:40.012Z,3.42
2023-01-31T02:29:54.063Z,3.39
2023-01-31T02:31:13.918Z,3.38
2023-01-31T02:32:15.840Z,3.34
2023-01-31T02:33:25.293Z,3.32
2023-01-31T02:34:45.719Z,3.32
2023-01-31T02:35:47.597Z,3.34
2023-01-31T02:37:01.688Z,3.34
2023-01-31T02:38:12.421Z,3.38
2023-01-31T02:39:29.885Z,3.39
2023-01-31T02:40:40.657Z,3.41
2023-01-31T02:41:54.938Z,3.42
2023-01-31T02:42:56.742Z,3.45
2023-01-31T02:44:19.832Z,3.47
2023-01-31T02:45:36.913Z,3.52
2023-01-31T02:46:44.941Z,3.48
2023-01-31T02:47:54.433Z,3.45
2023-01-31T02:49:05.503Z,3.40
2023-01-31T02:50:13.409Z,3.39
2023-01-31T02:51:19.678Z,3.37
2023-01-31T02:52:27.712Z,3.36
2023-01-31T02:53:44.054Z,3.33
2023-01-31T02:55:14.026Z,3.31
2023-01-31T02:56:18.682Z,3.30
2023-01-31T02:57:22.318Z,3.30
2023-01-31T02:58:27.401Z,3.31
2023-01-31T02:59:32.935Z,3.34
2023-01-31T03:00:36.684Z,3.37
2023-01-31T03:01:40.487Z,3.36
2023-01-31T03:02:42.493Z,3.34
2023-01-31T03:03:44.413Z,3.35
2023-01-31T03:04:47.134Z,3.35
2023-01-31T03:06:07.747Z,3.38
2023-01-31T03:07:27.092Z,3.40
2023-01-31T03:08:28.952Z,3.43
2023-01-31T03:09:36.905Z,3.44
2023-01-31T03:11:11.389Z,3.45
2023-01-31T03:12:19.545Z,3.49
2023-01-31T03:13:27.252Z,3.48
2023-01-31T03:14:47.744Z,3.45
2023-01-31T03:16:14.851Z,3.46
2023-01-31T03:17:34.484Z,3.46
2023-01-31T03:18:47.446Z,3.46
2023-01-31T03:19:54.866Z,3.46
2023-01-31T03:21:01.198Z,3.42
2023-01-31T03:22:12.340Z,3.42
2023-01-31T03:23:16.702Z,3.41
2023-01-31T03:24:20.409Z,3.40
2023-01-31T03:25:25.457Z,3.39
2023-01-31T03:26:27.835Z,3.38
2023-01-31T03:27:29.786Z,3.37
2023-01-31T03:28:33.262Z,3.39
2023-01-31T03:29:36.870Z,3.39
2023-01-31T03:30:41.364Z,3.39
2023-01-31T03:31:59.206Z,3.39
2023-01-31T03:33:10.922Z,3.37
2023-01-31T03:34:14.383Z,3.39
2023-01-31T03:35:16.784Z,3.43
2023-01-31T03:36:37.063Z,3.43
2023-01-31T03:37:45.679Z,3.42
2023-01-31T03:38:56.534Z,3.42
2023-01-31T03:40:07.556Z,3.39
2023-01-31T03:41:18.588Z,3.39
2023-01-31T03:42:25.151Z,3.38
2023-01-31T03:43:27.057Z,3.39
2023-01-31T03:44:47.410Z,3.38
2023-01-31T03:45:53.326Z,3.37
2023-01-31T03:46:59.852Z,3.36
2023-01-31T03:48:03.849Z,3.38
2023-01-31T03:49:09.549Z,3.41
2023-01-31T03:50:23.515Z,3.46
2023-01-31T03:51:27.850Z,3.45
2023-01-31T03:52:36.142Z,3.47
2023-01-31T03:53:58.224Z,3.47
2023-01-31T03:55:03.320Z,3.46
2023-01-31T03:56:08.565Z,3.46
2023-01-31T03:57:17.888Z,3.44
2023-01-31T03:58:21.982Z,3.42
2023-01-31T03:59:28.509Z,3.42
2023-01-31T04:00:33.669Z,3.45
2023-01-31T04:01:38.860Z,3.47
2023-01-31T04:02:42.064Z,3.49
2023-01-31T04:03:45.953Z,3.47
2023-01-31T04:05:14.816Z,3.47
2023-01-31T04:06:17.546Z,3.47
2023-01-31T04:07:19.653Z,3.46
2023-01-31T04:08:21.607Z,3.44
2023-01-31T04:09:23.412Z,3.41
2023-01-31T04:10:28.870Z,3.40
2023-01-31T04:11:35.972Z,3.43
2023-01-31T04:12:38.412Z,3.42
2023-01-31T04:13:41.333Z,3.42
2023-01-31T04:14:43.365Z,3.42
2023-01-31T04:15:45.340Z,3.42
2023-01-31T04:16:47.681Z,3.43
2023-01-31T04:17:49.939Z,3.43
2023-01-31T04:18:52.171Z,3.44
2023-01-31T04:19:54.058Z,3.46
2023-01-31T04:20:55.887Z,3.45
2023-01-31T04:21:57.825Z,3.46
2023-01-31T04:23:00.188Z,3.48
2023-01-31T04:24:02.417Z,3.47
2023-01-31T04:25:04.546Z,3.46
2023-01-31T04:26:06.425Z,3.46
2023-01-31T04:27:08.374Z,3.47
2023-01-31T04:28:13.761Z,3.46
2023-01-31T04:29:15.601Z,3.45
2023-01-31T04:30:17.728Z,3.45
2023-01-31T04:31:19.620Z,3.47
2023-01-31T04:32:21.660Z,3.48
2023-01-31T04:33:24.068Z,3.49
2023-01-31T04:34:26.012Z,3.47
2023-01-31T04:35:27.879Z,3.47
2023-01-31T04:36:29.795Z,3.49
2023-01-31T04:37:31.894Z,3.50
2023-01-31T04:38:33.767Z,3.47
2023-01-31T04:39:35.581Z,3.47
2023-01-31T04:40:37.683Z,3.47
2023-01-31T04:41:39.919Z,3.46
2023-01-31T04:42:41.870Z,3.46
2023-01-31T04:43:43.649Z,3.48
2023-01-31T04:44:45.635Z,3.48
2023-01-31T04:45:47.593Z,3.46
2023-01-31T04:46:49.462Z,3.49
2023-01-31T04:47:51.390Z,3.47
2023-01-31T04:48:53.363Z,3.42
2023-01-31T04:49:55.593Z,3.42
2023-01-31T04:50:57.499Z,3.42
2023-01-31T04:51:59.354Z,3.42
2023-01-31T04:53:01.266Z,3.42
2023-01-31T04:54:03.212Z,3.44
2023-01-31T04:55:05.387Z,3.42
2023-01-31T04:56:08.055Z,3.39
2023-01-31T04:57:10.151Z,3.42
2023-01-31T04:58:12.126Z,3.44
2023-01-31T04:59:14.000Z,3.45
2023-01-31T05:00:16.115Z,3.42
2023-01-31T05:01:18.015Z,3.45
2023-01-31T05:02:19.923Z,3.47
2023-01-31T05:03:21.718Z,3.49
2023-01-31T05:04:24.106Z,3.51
2023-01-31T05:05:25.994Z,3.53
2023-01-31T05:06:27.992Z,3.54
2023-01-31T05:07:29.848Z,3.55
2023-01-31T05:08:31.831Z,3.55
2023-01-31T05:09:33.745Z,3.54
2023-01-31T05:10:36.454Z,3.55
2023-01-31T05:11:38.498Z,3.53
2023-01-31T05:12:40.498Z,3.52
2023-01-31T05:13:43.101Z,3.51
2023-01-31T05:14:44.990Z,3.46
2023-01-31T05:15:48.613Z,3.46
2023-01-31T05:16:50.762Z,3.44
2023-01-31T05:17:53.947Z,3.42
2023-01-31T05:18:55.825Z,3.43
2023-01-31T05:19:57.850Z,3.42
2023-01-31T05:20:59.692Z,3.42
2023-01-31T05:22:01.700Z,3.43
2023-01-31T05:23:03.843Z,3.43
2023-01-31T05:24:06.025Z,3.40
2023-01-31T05:25:08.060Z,3.39
2023-01-31T05:26:09.928Z,3.41
2023-01-31T05:27:11.873Z,3.44
2023-01-31T05:28:13.683Z,3.45
2023-01-31T05:29:15.949Z,3.44
2023-01-31T05:30:18.066Z,3.39
2023-01-31T05:31:20.044Z,3.38
2023-01-31T05:32:22.024Z,3.40
2023-01-31T05:33:23.968Z,3.39
2023-01-31T05:34:26.829Z,3.39
2023-01-31T05:35:28.783Z,3.40
2023-01-31T05:36:31.194Z,3.42
2023-01-31T05:37:33.266Z,3.40
2023-01-31T05:38:35.178Z,3.37
2023-01-31T05:39:37.587Z,3.36
2023-01-31T05:40:39.489Z,3.39
2023-01-31T05:41:41.364Z,3.42
2023-01-31T05:42:43.769Z,3.41
2023-01-31T05:43:45.640Z,3.39
2023-01-31T05:44:47.542Z,3.37
2023-01-31T05:45:50.300Z,3.35
2023-01-31T05:46:52.276Z,3.33
2023-01-31T05:47:54.671Z,3.32
2023-01-31T05:48:56.547Z,3.29
2023-01-31T05:49:58.426Z,3.29
2023-01-31T05:51:00.847Z,3.28
2023-01-31T05:52:03.365Z,3.27
2023-01-31T05:53:05.339Z,3.23
2023-01-31T05:54:07.885Z,3.21
2023-01-31T05:55:09.935Z,3.18
2023-01-31T05:56:12.061Z,3.16
2023-01-31T05:57:15.542Z,3.13
2023-01-31T05:58:17.503Z,3.12
2023-01-31T05:59:19.628Z,3.14
2023-01-31T06:00:22.112Z,3.13
2023-01-31T06:01:26.943Z,3.14
2023-01-31T06:02:28.857Z,3.15
2023-01-31T06:03:31.108Z,3.16
2023-01-31T06:04:33.559Z,3.16
2023-01-31T06:05:35.475Z,3.16
2023-01-31T06:06:37.396Z,3.13
2023-01-31T06:07:39.332Z,3.12
2023-01-31T06:08:42.425Z,3.11
2023-01-31T06:09:44.295Z,3.11
2023-01-31T06:10:46.204Z,3.10
2023-01-31T06:11:48.041Z,3.11
2023-01-31T06:12:49.960Z,3.10
2023-01-31T06:13:51.832Z,3.08
2023-01-31T06:14:53.685Z,3.09
2023-01-31T06:15:55.503Z,3.12
2023-01-31T06:16:57.701Z,3.11
2023-01-31T06:18:00.263Z,3.13
2023-01-31T06:19:02.396Z,3.14
2023-01-31T06:20:04.989Z,3.15
2023-01-31T06:21:06.857Z,3.16
2023-01-31T06:22:08.813Z,3.18
2023-01-31T06:23:10.622Z,3.14
2023-01-31T06:24:12.674Z,3.15
2023-01-31T06:25:14.516Z,3.14
2023-01-31T06:26:16.426Z,3.15
2023-01-31T06:27:18.306Z,3.16
2023-01-31T06:28:20.367Z,3.18
2023-01-31T06:29:22.327Z,3.20
2023-01-31T06:30:24.496Z,3.22
2023-01-31T06:31:26.503Z,3.23
2023-01-31T06:32:28.474Z,3.23
2023-01-31T06:33:43.549Z,3.25
2023-01-31T06:34:48.228Z,3.26
2023-01-31T06:35:50.025Z,3.26
2023-01-31T06:36:51.870Z,3.28
2023-01-31T06:37:55.733Z,3.31
2023-01-31T06:38:58.149Z,3.34
2023-01-31T06:40:00.208Z,3.33
2023-01-31T06:41:02.136Z,3.33
2023-01-31T06:42:04.721Z,3.36
2023-01-31T06:43:06.653Z,3.36
2023-01-31T06:44:08.596Z,3.36
2023-01-31T06:45:10.794Z,3.36
2023-01-31T06:46:12.811Z,3.35
2023-01-31T06:47:15.019Z,3.35
2023-01-31T06:48:17.297Z,3.33
2023-01-31T06:49:19.219Z,3.31
2023-01-31T06:50:21.107Z,3.30
2023-01-31T06:51:23.062Z,3.31
2023-01-31T06:52:24.845Z,3.34
2023-01-31T06:53:26.721Z,3.36
2023-01-31T06:54:28.617Z,3.37
2023-01-31T06:55:30.585Z,3.39
2023-01-31T06:56:32.741Z,3.39
2023-01-31T06:57:34.781Z,3.37
2023-01-31T06:58:36.617Z,3.36
2023-01-31T06:59:38.506Z,3.37
2023-01-31T07:00:40.356Z,3.39
2023-01-31T07:01:42.416Z,3.37
2023-01-31T07:02:44.688Z,3.37
2023-01-31T07:03:46.619Z,3.37
2023-01-31T07:04:48.557Z,3.36
2023-01-31T07:05:51.015Z,3.39
2023-01-31T07:06:52.971Z,3.42
2023-01-31T07:07:54.797Z,3.43
2023-01-31T07:08:56.670Z,3.43
2023-01-31T07:09:58.578Z,3.44
2023-01-31T07:11:03.794Z,3.44
2023-01-31T07:12:06.244Z,3.42
2023-01-31T07:13:08.339Z,3.40
2023-01-31T07:14:10.224Z,3.40
2023-01-31T07:15:12.109Z,3.44
2023-01-31T07:16:17.304Z,3.46
2023-01-31T07:17:21.335Z,3.48
2023-01-31T07:18:23.250Z,3.45
2023-01-31T07:19:25.101Z,3.45
2023-01-31T07:20:27.446Z,3.45
2023-01-31T07:21:30.271Z,3.44
2023-01-31T07:22:32.353Z,3.43
2023-01-31T07:23:34.313Z,3.39
2023-01-31T07:24:36.178Z,3.39
2023-01-31T07:25:38.505Z,3.37
2023-01-31T07:26:40.412Z,3.37
2023-01-31T07:27:42.308Z,3.38
2023-01-31T07:28:44.647Z,3.39
2023-01-31T07:29:46.540Z,3.42
2023-01-31T07:30:49.012Z,3.43
2023-01-31T07:31:51.447Z,3.45
2023-01-31T07:32:53.358Z,3.45
2023-01-31T07:33:55.275Z,3.43
2023-01-31T07:34:57.163Z,3.42
2023-01-31T07:35:58.965Z,3.44
2023-01-31T07:37:01.581Z,3.45
2023-01-31T07:38:03.781Z,3.46
2023-01-31T07:39:06.945Z,3.49
2023-01-31T07:40:09.155Z,3.49
2023-01-31T07:41:11.578Z,3.48
2023-01-31T07:42:13.449Z,3.49
2023-01-31T07:43:15.401Z,3.49
2023-01-31T07:44:17.221Z,3.46
2023-01-31T07:45:23.848Z,3.46
2023-01-31T07:46:26.506Z,3.47
2023-01-31T07:47:28.458Z,3.49
2023-01-31T07:48:30.564Z,3.51
2023-01-31T07:49:33.183Z,3.50
2023-01-31T07:50:35.466Z,3.52
2023-01-31T07:51:39.221Z,3.53
2023-01-31T07:52:41.081Z,3.53
2023-01-31T07:53:43.510Z,3.53
2023-01-31T07:54:45.453Z,3.52
2023-01-31T07:55:47.766Z,3.53
2023-01-31T07:56:49.985Z,3.54
2023-01-31T07:57:51.914Z,3.54
2023-01-31T07:58:54.445Z,3.52
2023-01-31T07:59:56.252Z,3.52
2023-01-31T08:01:16.696Z,3.51
2023-01-31T08:02:36.992Z,3.52
2023-01-31T08:03:38.898Z,3.55
2023-01-31T08:04:40.856Z,3.56
2023-01-31T08:05:46.422Z,3.58
2023-01-31T08:06:49.518Z,3.60
2023-01-31T08:08:10.781Z,3.62
2023-01-31T08:09:13.130Z,3.66
2023-01-31T08:10:18.408Z,3.67
2023-01-31T08:11:20.641Z,3.68
2023-01-31T08:12:22.822Z,3.67
2023-01-31T08:13:27.080Z,3.70
2023-01-31T08:14:29.405Z,3.68
2023-01-31T08:15:31.815Z,3.69
2023-01-31T08:16:34.218Z,3.69
2023-01-31T08:17:36.053Z,3.67
2023-01-31T08:18:38.452Z,3.68
2023-01-31T08:19:40.379Z,3.62
2023-01-31T08:20:42.426Z,3.62
2023-01-31T08:21:44.834Z,3.62
2023-01-31T08:22:47.228Z,3.64
2023-01-31T08:23:49.664Z,3.63
2023-01-31T08:24:51.614Z,3.65
2023-01-31T08:25:53.525Z,3.68
2023-01-31T08:26:55.444Z,3.68
2023-01-31T08:27:58.178Z,3.69
2023-01-31T08:29:00.467Z,3.67
2023-01-31T08:30:02.623Z,3.63
2023-01-31T08:31:09.023Z,3.62
2023-01-31T08:32:11.231Z,3.61
2023-01-31T08:33:13.103Z,3.63
2023-01-31T08:34:14.946Z,3.65
2023-01-31T08:35:16.919Z,3.65
2023-01-31T08:36:18.776Z,3.64
2023-01-31T08:37:20.739Z,3.65
2023-01-31T08:38:22.831Z,3.64
2023-01-31T08:39:24.718Z,3.62
2023-01-31T08:40:26.604Z,3.62
2023-01-31T08:41:30.473Z,3.62
2023-01-31T08:42:32.721Z,3.63
2023-01-31T08:43:45.531Z,3.64
2023-01-31T08:44:55.855Z,3.60
2023-01-31T08:45:57.794Z,3.58
2023-01-31T08:47:02.322Z,3.58
2023-01-31T08:48:04.773Z,3.59
2023-01-31T08:49:07.507Z,3.61
2023-01-31T08:50:25.765Z,3.58
2023-01-31T08:51:30.114Z,3.56
2023-01-31T08:52:35.717Z,3.56
2023-01-31T08:53:41.328Z,3.59
2023-01-31T08:54:43.562Z,3.59
2023-01-31T08:55:45.402Z,3.63
2023-01-31T08:56:47.253Z,3.67
2023-01-31T08:57:59.226Z,3.70
2023-01-31T08:59:02.042Z,3.71
2023-01-31T09:00:04.080Z,3.70
2023-01-31T09:01:07.491Z,3.68
2023-01-31T09:02:12.288Z,3.71
2023-01-31T09:03:17.255Z,3.67
2023-01-31T09:04:19.100Z,3.66
2023-01-31T09:05:21.940Z,3.65
2023-01-31T09:06:25.480Z,3.66
2023-01-31T09:07:28.054Z,3.64
2023-01-31T09:08:30.556Z,3.63
2023-01-31T09:09:33.106Z,3.65
2023-01-31T09:10:35.220Z,3.67
2023-01-31T09:11:37.241Z,3.67
2023-01-31T09:12:39.604Z,3.69
2023-01-31T09:13:41.869Z,3.68
2023-01-31T09:14:43.755Z,3.69
2023-01-31T09:15:45.974Z,3.68
2023-01-31T09:16:47.864Z,3.72
2023-01-31T09:17:49.819Z,3.73
2023-01-31T09:18:52.217Z,3.75
2023-01-31T09:19:54.175Z,3.76
2023-01-31T09:20:56.022Z,3.76
2023-01-31T09:21:57.911Z,3.75
2023-01-31T09:22:59.752Z,3.72
2023-01-31T09:24:04.262Z,3.73
2023-01-31T09:25:06.348Z,3.74
2023-01-31T09:26:08.991Z,3.73
2023-01-31T09:27:10.887Z,3.72
2023-01-31T09:28:12.977Z,3.74
2023-01-31T09:29:14.928Z,3.74
2023-01-31T09:30:17.138Z,3.74
2023-01-31T09:31:21.100Z,3.73
2023-01-31T09:32:23.120Z,3.74
2023-01-31T09:33:24.993Z,3.73
2023-01-31T09:34:26.833Z,3.76
2023-01-31T09:35:28.697Z,3.78
2023-01-31T09:36:30.664Z,3.84
2023-01-31T09:37:33.390Z,3.86
2023-01-31T09:38:35.743Z,3.90
2023-01-31T09:39:37.600Z,3.92
2023-01-31T09:40:41.000Z,3.92
2023-01-31T09:41:48.145Z,3.94
2023-01-31T09:42:51.572Z,3.97
2023-01-31T09:43:56.736Z,3.97
2023-01-31T09:45:19.111Z,3.96
2023-01-31T09:46:24.843Z,3.97
2023-01-31T09:47:30.098Z,3.95
2023-01-31T09:48:35.888Z,3.99
2023-01-31T09:49:43.587Z,3.97
2023-01-31T09:50:56.153Z,3.95
2023-01-31T09:52:02.373Z,3.94
2023-01-31T09:53:04.381Z,3.92
2023-01-31T09:54:08.223Z,3.89
2023-01-31T09:55:23.003Z,3.86
2023-01-31T09:56:33.080Z,3.89
2023-01-31T09:58:01.466Z,3.89
2023-01-31T09:59:06.212Z,3.93
2023-01-31T10:00:26.154Z,3.97
2023-01-31T10:01:30.863Z,3.99
2023-01-31T10:02:55.728Z,4.04
2023-01-31T10:03:57.618Z,4.01
2023-01-31T10:05:03.363Z,4.01
2023-01-31T10:06:12.439Z,4.07
2023-01-31T10:07:24.577Z,4.11
2023-01-31T10:08:29.574Z,4.17
2023-01-31T10:09:33.165Z,4.20
2023-01-31T10:10:45.678Z,4.23
2023-01-31T10:11:49.484Z,4.27
2023-01-31T10:12:58.177Z,4.28
2023-01-31T10:14:12.151Z,4.29
2023-01-31T10:15:17.402Z,4.30
2023-01-31T10:16:26.287Z,4.31
2023-01-31T10:17:38.954Z,4.25
2023-01-31T10:18:47.119Z,4.24
2023-01-31T10:19:57.962Z,4.27
2023-01-31T10:21:05.978Z,4.26
2023-01-31T10:22:10.931Z,4.27
2023-01-31T10:23:29.551Z,4.27
2023-01-31T10:24:34.416Z,4.28
2023-01-31T10:25:44.920Z,4.32
2023-01-31T10:26:48.353Z,4.33
2023-01-31T10:27:57.576Z,4.29
2023-01-31T10:29:01.868Z,4.29
2023-01-31T10:30:04.721Z,4.31
2023-01-31T10:31:15.947Z,4.35
2023-01-31T10:32:24.451Z,4.36
2023-01-31T10:33:35.869Z,4.35
2023-01-31T10:34:47.222Z,4.31
2023-01-31T10:35:53.302Z,4.33
2023-01-31T10:37:13.171Z,4.34
2023-01-31T10:38:22.145Z,4.36
2023-01-31T10:39:27.053Z,4.35
2023-01-31T10:40:39.554Z,4.37
2023-01-31T10:42:04.340Z,4.39
2023-01-31T10:43:21.336Z,4.38
2023-01-31T10:44:41.939Z,4.38
2023-01-31T10:45:44.143Z,4.39
2023-01-31T10:46:47.247Z,4.41
2023-01-31T10:47:53.474Z,4.48
2023-01-31T10:48:55.437Z,4.50
2023-01-31T10:49:57.451Z,4.53
2023-01-31T10:51:24.608Z,4.54
2023-01-31T10:52:49.209Z,4.57
2023-01-31T10:53:57.516Z,4.59
2023-01-31T10:55:04.329Z,4.56
2023-01-31T10:56:06.205Z,4.51
2023-01-31T10:57:08.316Z,4.50
2023-01-31T10:58:15.207Z,4.51
2023-01-31T10:59:19.942Z,4.46
2023-01-31T11:00:24.022Z,4.46
2023-01-31T11:01:26.213Z,4.45
2023-01-31T11:02:29.553Z,4.48
2023-01-31T11:03:31.478Z,4.50
2023-01-31T11:04:41.897Z,4.51
2023-01-31T11:05:50.769Z,4.52
2023-01-31T11:06:53.496Z,4.55
2023-01-31T11:08:00.315Z,4.60
2023-01-31T11:09:03.589Z,4.63
2023-01-31T11:10:21.909Z,4.67
2023-01-31T11:11:25.343Z,4.69
2023-01-31T11:12:40.814Z,4.71
2023-01-31T11:13:55.414Z,4.74
2023-01-31T11:15:08.109Z,4.75
2023-01-31T11:16:11.629Z,4.76
2023-01-31T11:17:21.397Z,4.78
2023-01-31T11:18:29.542Z,4.75
2023-01-31T11:19:37.530Z,4.76
2023-01-31T11:20:46.072Z,4.78
2023-01-31T11:21:50.107Z,4.79
2023-01-31T11:22:53.028Z,4.82
2023-01-31T11:23:59.382Z,4.84
2023-01-31T11:25:04.765Z,4.86
2023-01-31T11:26:06.645Z,4.88
2023-01-31T11:27:11.820Z,4.87
2023-01-31T11:28:20.259Z,4.90
2023-01-31T11:29:28.257Z,4.90
2023-01-31T11:30:32.641Z,4.93
2023-01-31T11:31:37.274Z,4.94
2023-01-31T11:32:39.306Z,4.94
2023-01-31T11:33:46.263Z,4.90
2023-01-31T11:35:22.875Z,4.89
2023-01-31T11:36:24.789Z,4.89
2023-01-31T11:37:27.976Z,4.85
2023-01-31T11:38:29.877Z,4.84
2023-01-31T11:39:36.672Z,4.83
2023-01-31T11:40:40.239Z,4.80
2023-01-31T11:41:42.164Z,4.80
2023-01-31T11:42:54.103Z,4.81
2023-01-31T11:44:11.137Z,4.87
2023-01-31T11:45:20.423Z,4.91
2023-01-31T11:46:23.636Z,4.95
2023-01-31T11:47:33.867Z,4.97
2023-01-31T11:48:41.829Z,5.04
2023-01-31T11:49:43.887Z,5.06
2023-01-31T11:50:50.922Z,5.05
2023-01-31T11:51:53.324Z,5.06
2023-01-31T11:52:59.446Z,5.06
2023-01-31T11:54:05.005Z,5.06
2023-01-31T11:55:08.673Z,5.03
2023-01-31T11:56:17.901Z,5.03
2023-01-31T11:57:27.238Z,5.00
2023-01-31T11:58:34.466Z,5.04
2023-01-31T11:59:36.383Z,5.06
2023-01-31T12:00:42.915Z,5.06
2023-01-31T12:01:55.182Z,5.08
2023-01-31T12:03:08.295Z,5.12
2023-01-31T12:04:14.693Z,5.14
2023-01-31T12:05:18.097Z,5.15
2023-01-31T12:06:39.588Z,5.18
2023-01-31T12:07:50.477Z,5.21
2023-01-31T12:08:56.937Z,5.27
2023-01-31T12:09:58.859Z,5.29
2023-01-31T12:11:04.221Z,5.27
2023-01-31T12:12:20.038Z,5.29
2023-01-31T12:13:22.599Z,5.34
2023-01-31T12:14:27.867Z,5.35
2023-01-31T12:15:32.238Z,5.37
2023-01-31T12:16:37.737Z,5.39
2023-01-31T12:17:44.377Z,5.44
2023-01-31T12:19:07.748Z,5.44
2023-01-31T12:20:29.244Z,5.48
2023-01-31T12:21:31.177Z,5.49
2023-01-31T12:22:42.289Z,5.45
2023-01-31T12:23:52.535Z,5.49
2023-01-31T12:25:13.807Z,5.51
2023-01-31T12:26:36.002Z,5.55
2023-01-31T12:27:37.904Z,5.57
2023-01-31T12:28:51.516Z,5.60
2023-01-31T12:29:56.418Z,5.66
2023-01-31T12:31:01.567Z,5.63
2023-01-31T12:32:03.455Z,5.63
2023-01-31T12:33:11.180Z,5.62
2023-01-31T12:35:00.198Z,5.64
2023-01-31T12:36:22.417Z,5.69
2023-01-31T12:37:24.233Z,5.66
2023-01-31T12:38:28.752Z,5.65
2023-01-31T12:39:39.804Z,5.62
2023-01-31T12:41:00.424Z,5.56
2023-01-31T12:42:02.479Z,5.56
2023-01-31T12:43:05.810Z,5.59
2023-01-31T12:44:09.768Z,5.58
2023-01-31T12:45:23.939Z,5.56
2023-01-31T12:46:33.400Z,5.57
2023-01-31T12:47:35.260Z,5.59
2023-01-31T12:48:47.996Z,5.57
2023-01-31T12:49:55.562Z,5.55
2023-01-31T12:51:16.162Z,5.51
2023-01-31T12:52:30.264Z,5.50
2023-01-31T12:53:41.072Z,5.53
2023-01-31T12:55:07.492Z,5.54
2023-01-31T12:56:15.383Z,5.53
2023-01-31T12:57:35.990Z,5.55
2023-01-31T12:58:45.746Z,5.57
2023-01-31T13:00:03.765Z,5.59
2023-01-31T13:01:09.219Z,5.58
2023-01-31T13:02:17.082Z,5.57
2023-01-31T13:03:39.062Z,5.60
2023-01-31T13:04:45.979Z,5.61
2023-01-31T13:06:01.955Z,5.63
2023-01-31T13:07:06.428Z,5.58
2023-01-31T13:08:11.586Z,5.48
2023-01-31T13:09:21.090Z,5.41
2023-01-31T13:10:44.767Z,5.43
2023-01-31T13:12:01.815Z,5.44
2023-01-31T13:13:06.255Z,5.46
2023-01-31T13:14:13.091Z,5.38
2023-01-31T13:15:20.172Z,5.30
2023-01-31T13:16:36.491Z,5.21
2023-01-31T13:17:40.112Z,5.22
2023-01-31T13:18:43.487Z,5.24
2023-01-31T13:19:55.147Z,5.27
2023-01-31T13:20:58.447Z,5.29
2023-01-31T13:22:03.183Z,5.31
2023-01-31T13:23:12.725Z,5.33
2023-01-31T13:24:19.654Z,5.33
2023-01-31T13:25:30.848Z,5.25
2023-01-31T13:26:34.793Z,5.23
2023-01-31T13:27:39.335Z,5.20
2023-01-31T13:28:46.044Z,5.18
2023-01-31T13:29:52.621Z,5.20
2023-01-31T13:30:54.580Z,5.21
2023-01-31T13:32:05.608Z,5.21
2023-01-31T13:33:25.990Z,5.18
2023-01-31T13:34:31.020Z,5.18
2023-01-31T13:35:35.847Z,5.19
2023-01-31T13:36:47.524Z,5.17
2023-01-31T13:37:51.307Z,5.16
2023-01-31T13:38:53.527Z,5.12
2023-01-31T13:39:55.505Z,5.05
2023-01-31T13:40:57.913Z,5.06
2023-01-31T13:41:59.919Z,5.08
2023-01-31T13:43:07.632Z,5.12
2023-01-31T13:44:12.868Z,5.10
2023-01-31T13:45:27.735Z,5.09
2023-01-31T13:46:47.770Z,5.11
2023-01-31T13:47:59.260Z,5.10
2023-01-31T13:49:07.431Z,5.11
2023-01-31T13:50:29.706Z,5.17
2023-01-31T13:51:34.449Z,5.22
2023-01-31T13:52:40.276Z,5.25
2023-01-31T13:54:05.040Z,5.24
2023-01-31T13:55:15.552Z,5.25
2023-01-31T13:56:26.188Z,5.25
2023-01-31T13:57:47.365Z,5.20
2023-01-31T13:58:50.769Z,5.18
2023-01-31T13:59:55.612Z,5.20
2023-01-31T14:01:03.586Z,5.19
2023-01-31T14:02:08.070Z,5.15
2023-01-31T14:03:11.448Z,5.15
2023-01-31T14:04:16.348Z,5.15
2023-01-31T14:05:36.722Z,5.15
2023-01-31T14:06:54.448Z,5.21
2023-01-31T14:08:15.075Z,5.23
2023-01-31T14:09:26.168Z,5.22
2023-01-31T14:10:36.521Z,5.24
2023-01-31T14:11:43.878Z,5.25
2023-01-31T14:12:45.842Z,5.30
2023-01-31T14:13:49.130Z,5.34
2023-01-31T14:14:52.750Z,5.34
2023-01-31T14:15:55.876Z,5.35
2023-01-31T14:16:58.144Z,5.38
2023-01-31T14:18:01.216Z,5.39
2023-01-31T14:19:04.414Z,5.39
2023-01-31T14:20:26.648Z,5.35
2023-01-31T14:21:31.583Z,5.33
2023-01-31T14:22:38.139Z,5.33
2023-01-31T14:23:47.593Z,5.33
2023-01-31T14:24:49.525Z,5.33
2023-01-31T14:25:51.297Z,5.29
2023-01-31T14:26:54.016Z,5.30
2023-01-31T14:27:55.757Z,5.33
2023-01-31T14:28:58.143Z,5.33
2023-01-31T14:30:06.407Z,5.31
2023-01-31T14:31:13.000Z,5.28
2023-01-31T14:32:29.492Z,5.27